Pensacola Naval Air Station/Forrest Sherman field
KNPA : now visible

Airfield :











YOU CAN JOIN US ON...

 
LOGIN :

Register | Disclaimer

   EN    FR    IT 

 









Legend :    VFR   Marginal VFR   IFR   Intensive IFR   Very Intensive IFR
Visi :
Ceiling :
>= 8 km
>= 3000ft
5 to 8 km
1000 to 3000 ft
1500m to 5 km
500 to 1000 ft
800 to 1500m
200 to 500 ft
< 800m
< 200 ft
Symbols :   Thunderstorms  Fog  Heavy snow  Heavy precipitations  Wind > 20 kt






- Airport Elevation : 28 ft


KNPA - Pensacola Naval Air Station/Forrest Sherman field

CURRENT METAR :
  • 270056Z 25003KT 9SM CLR 29/23 A2994 RMK AO2 SLP139 T02890233 PNO $

EXPIRED METARs :
  • 262356Z 22007KT 9SM FEW060 31/23 A2991 RMK AO2 SLP130 T03060233 10333 20300 56003 PNO $
  • 262256Z 21009KT 9SM FEW050 32/23 A2991 RMK AO2 SLP130 T03170233 PNO $
  • 262156Z 19010KT 8SM FEW050 SCT200 33/24 A2992 RMK SLP132 T03280239 PNO

TAF TAF KNPA
Valid from the 26 at 23:00 until the 27 at 23:00 UTC


2623/2723 23008KT 9999 FEW050 QNH2989INS
FM270100 VRB05KT 9999 SKC QNH2992INS
FM270800 29005KT 9999 FEW020 SCT090 QNH2993INS
TEMPO 2709/2712 8000 BR
FM271500 VRB06KT 9999 SCT035 SCT100 QNH2999INS
FM271800 23010KT 9999 FEW040 SCT120 SCT250 QNH2990INS AUTOMATED SENSOR METWATCH 2703 TIL 2711 T25/2712Z T33/2717Z FN20053
KZJX FIR / North America



MET'MAP, your aeronautical weather chart ! - Copyright ORBIFLY December 2007 - Disclaimer

ORBIFLY MET'MAP TEAM :

Programming & Development : Alexandra Zaïnal
Concept & original design : Baudouin d'Aumeries
Assistance for programming : Marc-Olivier Méhu
Technical & hardware support : Manuel Goepfert

Contact : metmap@orbifly.com




SOURCES & CREDITS :

   NOAA       Earth
Advisory